createdAt,value
2023-03-12T00:06:49.805Z,5.20
2023-03-12T00:16:53.419Z,2.70
2023-03-12T00:26:57.568Z,2.77
2023-03-12T00:37:03.180Z,3.60
2023-03-12T00:47:08.584Z,2.20
2023-03-12T00:57:12.072Z,1.80
2023-03-12T01:07:16.953Z,1.93
2023-03-12T01:17:20.525Z,1.77
2023-03-12T01:27:24.911Z,2.10
2023-03-12T01:37:28.028Z,1.87
2023-03-12T01:47:33.366Z,2.03
2023-03-12T01:57:47.438Z,1.70
2023-03-12T02:07:52.633Z,2.95
2023-03-12T02:17:56.040Z,2.83
2023-03-12T02:28:04.005Z,1.80
2023-03-12T02:38:34.304Z,1.90
2023-03-12T02:48:38.881Z,1.73
2023-03-12T02:58:43.056Z,2.33
2023-03-12T03:08:48.650Z,1.73
2023-03-12T03:18:52.888Z,1.87
2023-03-12T03:28:57.551Z,1.83
2023-03-12T03:39:00.799Z,1.37
2023-03-12T03:49:07.637Z,1.77
2023-03-12T03:59:12.255Z,2.07
2023-03-12T04:09:18.684Z,1.43
2023-03-12T04:19:22.102Z,1.40
2023-03-12T04:29:27.611Z,1.97
2023-03-12T04:39:31.483Z,1.50
2023-03-12T04:49:35.848Z,1.60
2023-03-12T04:59:39.105Z,1.57
2023-03-12T05:09:44.704Z,1.63
2023-03-12T05:19:47.663Z,2.33
2023-03-12T05:29:52.953Z,2.03
2023-03-12T05:39:59.427Z,2.23
2023-03-12T05:50:05.366Z,2.23
2023-03-12T06:00:11.549Z,2.17
2023-03-12T06:10:24.461Z,1.93
2023-03-12T06:20:27.309Z,1.70
2023-03-12T06:30:32.195Z,2.03
2023-03-12T06:40:35.474Z,1.90
2023-03-12T06:50:40.203Z,1.70
2023-03-12T07:11:06.178Z,1.70
2023-03-12T07:21:09.197Z,1.77
2023-03-12T07:31:13.846Z,1.90
2023-03-12T07:41:17.441Z,1.70
2023-03-12T07:51:21.925Z,2.00
2023-03-12T08:01:32.460Z,1.90
2023-03-12T08:11:37.457Z,2.10
2023-03-12T08:21:45.284Z,2.37
2023-03-12T08:32:03.725Z,2.33
2023-03-12T08:42:07.931Z,2.60
2023-03-12T08:52:13.430Z,2.63
2023-03-12T09:02:16.529Z,2.50
2023-03-12T09:12:20.726Z,3.33
2023-03-12T09:22:23.805Z,3.50
2023-03-12T09:32:28.710Z,4.43
2023-03-12T09:42:40.191Z,4.13
2023-03-12T09:52:52.174Z,3.70
2023-03-12T10:03:11.157Z,3.57
2023-03-12T10:13:35.189Z,4.23
2023-03-12T10:23:51.077Z,5.23
2023-03-12T10:33:58.812Z,4.83
2023-03-12T10:44:24.008Z,2.30
2023-03-12T10:54:34.521Z,0.37
2023-03-12T11:04:38.628Z,0.80
2023-03-12T11:14:57.265Z,0.50
2023-03-12T11:25:06.281Z,0.60
2023-03-12T11:35:13.411Z,0.70
2023-03-12T11:45:24.162Z,1.40
2023-03-12T11:55:47.517Z,1.97
2023-03-12T12:05:59.384Z,0.83
2023-03-12T12:16:17.788Z,1.10
2023-03-12T12:26:27.450Z,1.30
2023-03-12T12:46:40.329Z,0.70
2023-03-12T12:56:50.295Z,5.10
2023-03-12T13:07:03.785Z,0.70
2023-03-12T13:17:22.275Z,0.90
2023-03-12T13:27:30.220Z,1.20
2023-03-12T13:38:01.909Z,0.90
2023-03-12T13:48:06.688Z,1.30
2023-03-12T13:58:17.083Z,1.00
2023-03-12T14:08:40.413Z,1.67
2023-03-12T14:18:46.927Z,1.50
2023-03-12T14:28:57.893Z,1.00
2023-03-12T14:39:20.393Z,1.53
2023-03-12T14:49:23.669Z,1.27
2023-03-12T14:59:32.149Z,1.07
2023-03-12T15:09:37.596Z,1.30
2023-03-12T15:19:43.470Z,1.40
2023-03-12T15:29:46.646Z,1.57
2023-03-12T15:39:53.684Z,2.03
2023-03-12T15:49:59.551Z,2.20
2023-03-12T16:00:28.882Z,2.30
2023-03-12T16:10:38.984Z,2.72
2023-03-12T16:20:43.810Z,2.47
2023-03-12T16:30:48.632Z,3.27
2023-03-12T16:40:54.548Z,2.97
2023-03-12T16:50:58.866Z,2.83
2023-03-12T17:01:03.641Z,3.63
2023-03-12T17:11:15.193Z,3.20
2023-03-12T17:21:20.442Z,3.50
2023-03-12T17:31:24.782Z,2.63
2023-03-12T17:41:29.126Z,4.60
2023-03-12T17:51:33.699Z,2.60
2023-03-12T18:01:38.444Z,3.17
2023-03-12T18:11:41.387Z,3.70
2023-03-12T18:21:45.869Z,2.90
2023-03-12T18:31:49.308Z,3.60
2023-03-12T18:41:56.904Z,7.80
2023-03-12T18:52:00.643Z,5.10
2023-03-12T19:02:05.898Z,3.17
2023-03-12T19:12:09.192Z,3.53
2023-03-12T19:22:13.576Z,3.73
2023-03-12T19:32:16.740Z,4.83
2023-03-12T19:42:21.529Z,2.87
2023-03-12T19:52:25.359Z,3.07
2023-03-12T20:02:30.093Z,4.17
2023-03-12T20:12:34.490Z,3.33
2023-03-12T20:22:40.610Z,2.73
2023-03-12T20:32:44.213Z,2.73
2023-03-12T20:42:48.920Z,3.53
2023-03-12T20:52:52.224Z,2.90
2023-03-12T21:02:56.968Z,3.03
2023-03-12T21:12:59.929Z,2.60
2023-03-12T21:23:04.937Z,2.80
2023-03-12T21:33:08.753Z,2.70
2023-03-12T21:43:13.243Z,2.27
2023-03-12T21:53:23.527Z,2.17
2023-03-12T22:03:28.714Z,2.23
2023-03-12T22:13:31.827Z,2.43
2023-03-12T22:23:37.688Z,1.90
2023-03-12T22:33:41.298Z,2.00
2023-03-12T22:43:46.694Z,2.57
2023-03-12T22:53:50.162Z,2.30
2023-03-12T23:03:54.727Z,1.80
2023-03-12T23:13:58.009Z,2.40
2023-03-12T23:24:02.279Z,2.67
2023-03-12T23:34:05.652Z,1.77
2023-03-12T23:44:10.037Z,2.27
2023-03-12T23:54:13.278Z,2.27
